createdAt,value
2019-03-27T00:01:49.596Z,100936.48
2019-03-27T00:04:16.481Z,100935.66
2019-03-27T00:06:43.388Z,100937.31
2019-03-27T00:09:10.711Z,100939.86
2019-03-27T00:11:37.936Z,100939.86
2019-03-27T00:14:05.178Z,100938.13
2019-03-27T00:16:32.435Z,100940.67
2019-03-27T00:18:59.312Z,100943.20
2019-03-27T00:21:26.637Z,100936.86
2019-03-27T00:23:53.781Z,100938.97
2019-03-27T00:26:21.029Z,100936.02
2019-03-27T00:28:48.182Z,100941.52
2019-03-27T00:31:16.097Z,100936.44
2019-03-27T00:33:42.993Z,100942.37
2019-03-27T00:36:09.964Z,100943.20
2019-03-27T00:38:37.190Z,100935.20
2019-03-27T00:41:04.106Z,100943.27
2019-03-27T00:43:30.980Z,100937.31
2019-03-27T00:45:57.888Z,100942.79
2019-03-27T00:48:26.118Z,100955.95
2019-03-27T00:50:53.360Z,100948.73
2019-03-27T00:53:20.504Z,100953.36
2019-03-27T00:55:47.654Z,100950.42
2019-03-27T00:58:14.933Z,100949.99
2019-03-27T01:00:41.884Z,100949.98
2019-03-27T01:03:08.839Z,100949.13
2019-03-27T01:05:35.708Z,100942.77
2019-03-27T01:08:02.594Z,100947.81
2019-03-27T01:10:29.841Z,100946.55
2019-03-27T01:12:56.744Z,100949.94
2019-03-27T01:15:23.696Z,100945.67
2019-03-27T01:17:50.663Z,100945.26
2019-03-27T01:20:17.829Z,100946.07
2019-03-27T01:22:44.801Z,100937.59
2019-03-27T01:25:12.039Z,100942.20
2019-03-27T01:27:39.400Z,100945.59
2019-03-27T01:30:06.362Z,100948.14
2019-03-27T01:32:33.318Z,100951.09
2019-03-27T01:35:00.372Z,100955.77
2019-03-27T01:37:27.363Z,100952.36
2019-03-27T01:39:54.738Z,100960.81
2019-03-27T01:42:21.723Z,100960.40
2019-03-27T01:44:48.656Z,100963.34
2019-03-27T01:47:15.553Z,100956.98
2019-03-27T01:49:42.418Z,100960.80
2019-03-27T01:52:09.308Z,100959.94
2019-03-27T01:54:36.518Z,100958.67
2019-03-27T01:57:03.753Z,100961.67
2019-03-27T01:59:31.013Z,100958.28
2019-03-27T02:01:57.988Z,100961.23
2019-03-27T02:04:25.321Z,100959.58
2019-03-27T02:06:52.572Z,100967.19
2019-03-27T02:09:19.518Z,100968.45
2019-03-27T02:11:46.382Z,100968.43
2019-03-27T02:14:13.281Z,100967.57
2019-03-27T02:16:40.602Z,100966.26
2019-03-27T02:19:07.817Z,100971.74
2019-03-27T02:21:34.677Z,100984.41
2019-03-27T02:24:01.559Z,100980.61
2019-03-27T02:26:28.428Z,100981.88
2019-03-27T02:28:55.685Z,100971.73
2019-03-27T02:31:22.577Z,100976.80
2019-03-27T02:33:49.561Z,100976.80
2019-03-27T02:36:16.829Z,100976.39
2019-03-27T02:38:44.080Z,100976.00
2019-03-27T02:41:11.047Z,100980.69
2019-03-27T02:43:38.299Z,100979.36
2019-03-27T02:46:05.280Z,100987.83
2019-03-27T02:48:32.250Z,100991.63
2019-03-27T02:50:59.530Z,100988.25
2019-03-27T02:53:26.482Z,100991.23
2019-03-27T02:55:53.369Z,100992.91
2019-03-27T02:58:21.331Z,100992.03
2019-03-27T03:00:48.269Z,100989.95
2019-03-27T03:03:15.490Z,100996.26
2019-03-27T03:05:42.429Z,100999.59
2019-03-27T03:08:09.399Z,101004.27
2019-03-27T03:10:36.361Z,100995.80
2019-03-27T03:13:03.325Z,101006.81
2019-03-27T03:15:30.633Z,101003.87
2019-03-27T03:17:57.519Z,101003.02
2019-03-27T03:20:24.464Z,101005.98
2019-03-27T03:22:51.367Z,101006.44
2019-03-27T03:25:18.320Z,101006.41
2019-03-27T03:27:45.283Z,101005.95
2019-03-27T03:30:12.260Z,101003.78
2019-03-27T03:32:39.191Z,101002.97
2019-03-27T03:35:07.540Z,100998.70
2019-03-27T03:37:34.500Z,101002.94
2019-03-27T03:40:01.815Z,101003.72
2019-03-27T03:42:28.680Z,100999.52
2019-03-27T03:44:55.910Z,100991.94
2019-03-27T03:47:22.800Z,100994.90
2019-03-27T03:49:50.874Z,100994.96
2019-03-27T03:52:17.825Z,101000.44
2019-03-27T03:54:44.790Z,101008.95
2019-03-27T03:57:11.771Z,101008.09
2019-03-27T03:59:38.793Z,101011.05
2019-03-27T04:02:05.865Z,101019.09
2019-03-27T04:04:32.902Z,101015.68
2019-03-27T04:07:00.187Z,101014.41
2019-03-27T04:09:27.164Z,101019.91
2019-03-27T04:11:54.361Z,101015.68
2019-03-27T04:14:21.281Z,101013.13
2019-03-27T04:16:48.248Z,101014.80
2019-03-27T04:19:15.275Z,101009.73
2019-03-27T04:21:42.558Z,101012.27
2019-03-27T04:24:09.545Z,101007.16
2019-03-27T04:26:36.508Z,101016.07
2019-03-27T04:29:03.432Z,101017.80
2019-03-27T04:31:30.403Z,101013.56
2019-03-27T04:33:57.379Z,101016.57
2019-03-27T04:36:24.310Z,101023.39
2019-03-27T04:38:51.203Z,101014.13
2019-03-27T04:41:18.164Z,101020.93
2019-03-27T04:43:45.401Z,101022.61
2019-03-27T04:46:12.370Z,101032.86
2019-03-27T04:48:39.425Z,101030.75
2019-03-27T04:51:06.756Z,101027.36
2019-03-27T04:53:34.003Z,101032.84
2019-03-27T04:56:00.920Z,101036.23
2019-03-27T04:58:27.946Z,101035.38
2019-03-27T05:00:55.330Z,101045.45
2019-03-27T05:03:22.603Z,101045.49
2019-03-27T05:05:49.835Z,101050.59
2019-03-27T05:08:17.804Z,101048.06
2019-03-27T05:10:44.787Z,101053.56
2019-03-27T05:13:12.120Z,101056.09
2019-03-27T05:15:39.093Z,101057.37
2019-03-27T05:18:06.349Z,101056.93
2019-03-27T05:20:33.673Z,101064.55
2019-03-27T05:23:00.567Z,101055.64
2019-03-27T05:25:27.765Z,101064.95
2019-03-27T05:27:54.712Z,101068.39
2019-03-27T05:30:21.580Z,101076.06
2019-03-27T05:32:48.473Z,101085.47
2019-03-27T05:35:15.424Z,101085.52
2019-03-27T05:37:42.586Z,101085.17
2019-03-27T05:40:09.473Z,101087.75
2019-03-27T05:42:36.339Z,101086.07
2019-03-27T05:45:03.229Z,101095.80
2019-03-27T05:47:31.261Z,101098.35
2019-03-27T05:49:58.139Z,101099.59
2019-03-27T05:52:25.118Z,101100.05
2019-03-27T05:54:52.341Z,101103.49
2019-03-27T05:57:19.247Z,101105.16
2019-03-27T05:59:46.546Z,101102.56
2019-03-27T06:02:13.545Z,101102.93
2019-03-27T06:04:40.499Z,101109.66
2019-03-27T06:07:07.791Z,101109.25
2019-03-27T06:09:34.764Z,101107.98
2019-03-27T06:12:01.991Z,101105.02
2019-03-27T06:14:29.244Z,101104.64
2019-03-27T06:16:56.215Z,101104.70
2019-03-27T06:19:23.140Z,101110.25
2019-03-27T06:21:50.084Z,101115.77
2019-03-27T06:24:16.978Z,101112.01
2019-03-27T06:26:44.169Z,101114.55
2019-03-27T06:29:11.127Z,101119.62
2019-03-27T06:31:38.364Z,101118.43
2019-03-27T06:34:05.507Z,101118.02
2019-03-27T06:36:32.425Z,101116.81
2019-03-27T06:38:59.416Z,101117.67
2019-03-27T06:41:26.660Z,101124.89
2019-03-27T06:43:53.915Z,101123.63
2019-03-27T06:46:20.888Z,101130.47
2019-03-27T06:48:48.107Z,101138.52
2019-03-27T06:51:16.423Z,101139.39
2019-03-27T06:53:43.397Z,101145.80
2019-03-27T06:56:10.582Z,101150.06
2019-03-27T06:58:37.944Z,101150.55
2019-03-27T07:01:05.092Z,101153.53
2019-03-27T07:03:31.981Z,101154.00
2019-03-27T07:05:58.877Z,101155.26
2019-03-27T07:08:26.132Z,101155.73
2019-03-27T07:10:53.007Z,101154.95
2019-03-27T07:13:20.018Z,101155.83
2019-03-27T07:15:47.003Z,101159.66
2019-03-27T07:18:13.904Z,101161.81
2019-03-27T07:20:41.213Z,101166.86
2019-03-27T07:23:08.874Z,101169.81
2019-03-27T07:25:35.814Z,101173.19
2019-03-27T07:28:02.710Z,101167.73
2019-03-27T07:30:29.603Z,101174.17
2019-03-27T07:32:57.662Z,101179.30
2019-03-27T07:35:25.701Z,101183.12
2019-03-27T07:37:52.597Z,101183.89
2019-03-27T07:40:19.466Z,101192.36
2019-03-27T07:42:46.358Z,101194.87
2019-03-27T07:45:13.258Z,101195.70
2019-03-27T07:47:40.544Z,101198.28
2019-03-27T07:50:07.785Z,101199.14
2019-03-27T07:52:34.673Z,101199.16
2019-03-27T07:55:01.993Z,101204.70
2019-03-27T07:57:29.244Z,101205.98
2019-03-27T07:59:56.148Z,101211.47
2019-03-27T08:02:23.441Z,101214.87
2019-03-27T08:04:50.591Z,101208.92
2019-03-27T08:07:26.616Z,101211.47
2019-03-27T08:09:46.445Z,101210.24
2019-03-27T08:12:13.696Z,101203.47
2019-03-27T08:14:40.662Z,101206.42
2019-03-27T08:17:07.914Z,101201.77
2019-03-27T08:19:34.842Z,101208.61
2019-03-27T08:22:01.778Z,101200.96
2019-03-27T08:24:28.713Z,101200.94
2019-03-27T08:26:56.093Z,101199.66
2019-03-27T08:29:23.071Z,101201.73
2019-03-27T08:31:50.042Z,101204.28
2019-03-27T08:34:17.017Z,101203.02
2019-03-27T08:36:44.163Z,101200.96
2019-03-27T08:39:11.066Z,101201.86
2019-03-27T08:41:38.256Z,101206.57
2019-03-27T08:44:05.512Z,101205.30
2019-03-27T08:46:32.413Z,101212.08
2019-03-27T08:49:00.341Z,101212.94
2019-03-27T08:51:27.683Z,101213.34
2019-03-27T08:53:54.945Z,101211.23
2019-03-27T08:56:21.920Z,101209.95
2019-03-27T08:58:48.913Z,101211.68
2019-03-27T09:01:16.940Z,101204.47
2019-03-27T09:03:43.910Z,101214.66
2019-03-27T09:06:11.200Z,101208.75
2019-03-27T09:08:38.456Z,101214.64
2019-03-27T09:11:05.362Z,101212.56
2019-03-27T09:13:32.326Z,101200.69
2019-03-27T09:15:59.286Z,101206.22
2019-03-27T09:18:26.171Z,101208.77
2019-03-27T09:20:53.478Z,101209.66
2019-03-27T09:23:20.364Z,101200.77
2019-03-27T09:25:47.344Z,101207.98
2019-03-27T09:28:14.623Z,101202.47
2019-03-27T09:30:41.890Z,101201.20
2019-03-27T09:33:08.916Z,101220.67
2019-03-27T09:35:36.872Z,101212.22
2019-03-27T09:38:04.089Z,101213.92
2019-03-27T09:40:31.202Z,101214.80
2019-03-27T09:42:58.381Z,101211.41
2019-03-27T09:45:25.801Z,101221.61
2019-03-27T09:47:53.128Z,101225.02
2019-03-27T09:50:20.421Z,101222.48
2019-03-27T09:52:47.585Z,101228.42
2019-03-27T09:55:14.829Z,101228.39
2019-03-27T09:57:41.834Z,101231.73
2019-03-27T10:00:08.782Z,101241.50
2019-03-27T10:02:35.687Z,101238.56
2019-03-27T10:05:02.648Z,101242.78
2019-03-27T10:07:29.619Z,101238.95
2019-03-27T10:09:56.799Z,101240.63
2019-03-27T10:12:23.778Z,101243.59
2019-03-27T10:14:50.735Z,101245.73
2019-03-27T10:17:17.704Z,101237.68
2019-03-27T10:19:44.900Z,101238.08
2019-03-27T10:22:11.845Z,101233.41
2019-03-27T10:24:38.772Z,101230.05
2019-03-27T10:27:08.914Z,101241.13
2019-03-27T10:29:35.880Z,101231.79
2019-03-27T10:32:03.202Z,101229.72
2019-03-27T10:34:30.086Z,101228.11
2019-03-27T10:36:57.321Z,101229.43
2019-03-27T10:39:24.229Z,101232.03
2019-03-27T10:41:51.282Z,101229.09
2019-03-27T10:44:18.272Z,101232.48
2019-03-27T10:46:45.504Z,101234.62
2019-03-27T10:49:12.376Z,101232.53
2019-03-27T10:51:39.277Z,101225.30
2019-03-27T10:54:06.306Z,101225.31
2019-03-27T10:56:33.239Z,101228.73
2019-03-27T10:59:00.548Z,101231.30
2019-03-27T11:01:27.949Z,101230.02
2019-03-27T11:03:54.914Z,101234.70
2019-03-27T11:06:21.818Z,101240.61
2019-03-27T11:08:48.802Z,101246.55
2019-03-27T11:11:16.148Z,101246.95
2019-03-27T11:13:43.029Z,101242.73
2019-03-27T11:16:09.907Z,101243.14
2019-03-27T11:18:36.842Z,101232.09
2019-03-27T11:21:03.751Z,101234.21
2019-03-27T11:23:32.037Z,101234.59
2019-03-27T11:25:58.985Z,101245.20
2019-03-27T11:28:28.629Z,101245.65
2019-03-27T11:30:55.593Z,101241.84
2019-03-27T11:33:22.584Z,101241.86
2019-03-27T11:35:51.755Z,101236.77
2019-03-27T11:38:19.500Z,101240.18
2019-03-27T11:40:46.787Z,101250.78
2019-03-27T11:43:14.051Z,101245.28
2019-03-27T11:45:41.009Z,101240.59
2019-03-27T11:48:09.686Z,101244.42
2019-03-27T11:50:44.556Z,101243.16
2019-03-27T11:53:05.144Z,101247.83
2019-03-27T11:55:32.090Z,101240.20
2019-03-27T11:57:59.429Z,101244.03
2019-03-27T12:00:26.360Z,101242.77
2019-03-27T12:02:53.261Z,101241.50
2019-03-27T12:05:20.576Z,101241.95
2019-03-27T12:07:47.931Z,101246.19
2019-03-27T12:10:14.886Z,101243.23
2019-03-27T12:12:42.257Z,101244.09
2019-03-27T12:15:09.576Z,101241.55
2019-03-27T12:17:36.848Z,101244.52
2019-03-27T12:20:04.279Z,101239.00
2019-03-27T12:22:31.517Z,101234.72
2019-03-27T12:24:58.517Z,101235.58
2019-03-27T12:27:25.833Z,101235.12
2019-03-27T12:29:52.846Z,101239.81
2019-03-27T12:32:19.818Z,101238.08
2019-03-27T12:34:46.772Z,101240.22
2019-03-27T12:37:13.753Z,101240.22
2019-03-27T12:39:41.252Z,101244.03
2019-03-27T12:42:08.181Z,101248.70
2019-03-27T12:44:35.466Z,101243.16
2019-03-27T12:47:02.532Z,101256.30
2019-03-27T12:49:29.432Z,101246.97
2019-03-27T12:51:56.380Z,101242.28
2019-03-27T12:54:23.295Z,101242.73
2019-03-27T12:56:50.608Z,101235.50
2019-03-27T12:59:17.585Z,101235.51
2019-03-27T13:01:44.802Z,101237.65
2019-03-27T13:04:11.765Z,101235.97
2019-03-27T13:06:38.671Z,101238.94
2019-03-27T13:09:05.609Z,101238.08
2019-03-27T13:11:32.794Z,101240.61
2019-03-27T13:13:59.761Z,101237.66
2019-03-27T13:16:26.786Z,101244.03
2019-03-27T13:18:53.801Z,101237.25
2019-03-27T13:21:26.195Z,101234.25
2019-03-27T13:23:49.257Z,101241.48
2019-03-27T13:26:16.519Z,101239.81
2019-03-27T13:28:48.979Z,101234.30
2019-03-27T13:31:12.663Z,101236.41
2019-03-27T13:33:39.914Z,101236.00
2019-03-27T13:36:07.181Z,101230.08
2019-03-27T13:38:34.417Z,101235.59
2019-03-27T13:41:01.366Z,101235.14
2019-03-27T13:43:28.299Z,101233.86
2019-03-27T13:45:55.566Z,101231.31
2019-03-27T13:48:22.481Z,101236.39
2019-03-27T13:50:49.764Z,101233.84
2019-03-27T13:53:16.763Z,101233.84
2019-03-27T13:55:43.729Z,101232.97
2019-03-27T13:58:10.643Z,101222.78
2019-03-27T14:00:37.676Z,101230.88
2019-03-27T14:03:04.564Z,101229.61
2019-03-27T14:05:31.857Z,101229.20
2019-03-27T14:07:58.825Z,101233.44
2019-03-27T14:10:26.047Z,101225.80
2019-03-27T14:12:53.378Z,101232.18
2019-03-27T14:15:20.261Z,101233.04
2019-03-27T14:17:47.218Z,101227.94
2019-03-27T14:20:14.187Z,101224.53
2019-03-27T14:22:41.481Z,101220.29
2019-03-27T14:25:08.638Z,101220.29
2019-03-27T14:27:35.564Z,101214.74
2019-03-27T14:30:02.464Z,101220.29
2019-03-27T14:32:29.994Z,101219.84
2019-03-27T14:34:57.256Z,101212.65
2019-03-27T14:37:24.210Z,101216.06
2019-03-27T14:39:51.475Z,101216.06
2019-03-27T14:42:18.706Z,101213.52
2019-03-27T14:44:45.661Z,101211.80
2019-03-27T14:47:12.605Z,101213.52
2019-03-27T14:49:39.565Z,101214.34
2019-03-27T14:52:08.578Z,101218.61
2019-03-27T14:54:35.381Z,101220.30
2019-03-27T14:57:02.320Z,101219.03
2019-03-27T14:59:29.293Z,101225.40
2019-03-27T15:01:56.158Z,101225.40
2019-03-27T15:04:23.056Z,101221.16
2019-03-27T15:06:50.305Z,101221.16
2019-03-27T15:09:17.293Z,101217.75
2019-03-27T15:11:44.248Z,101213.52
2019-03-27T15:14:11.199Z,101216.53
2019-03-27T15:16:38.385Z,101222.93
2019-03-27T15:19:05.645Z,101219.98
2019-03-27T15:21:32.912Z,101210.17
2019-03-27T15:24:00.253Z,101222.95
2019-03-27T15:26:27.504Z,101219.52
2019-03-27T15:28:54.655Z,101228.45
2019-03-27T15:31:21.611Z,101222.91
2019-03-27T15:33:49.066Z,101217.78
2019-03-27T15:36:16.427Z,101218.64
2019-03-27T15:38:43.727Z,101220.78
2019-03-27T15:41:11.032Z,101221.23
2019-03-27T15:43:38.080Z,101223.80
2019-03-27T15:46:05.332Z,101216.98
2019-03-27T15:48:32.689Z,101224.64
2019-03-27T15:50:59.691Z,101218.69
2019-03-27T15:53:26.974Z,101208.48
2019-03-27T15:55:54.380Z,101216.14
2019-03-27T15:58:21.799Z,101212.73
2019-03-27T16:00:48.715Z,101214.86
2019-03-27T16:03:16.090Z,101216.14
2019-03-27T16:05:42.991Z,101219.11
2019-03-27T16:08:09.949Z,101213.59
2019-03-27T16:10:37.243Z,101208.91
2019-03-27T16:13:04.335Z,101213.17
2019-03-27T16:15:31.249Z,101216.14
2019-03-27T16:17:58.250Z,101215.72
2019-03-27T16:20:25.580Z,101206.80
2019-03-27T16:22:52.469Z,101213.18
2019-03-27T16:25:19.440Z,101217.00
2019-03-27T16:27:46.318Z,101214.45
2019-03-27T16:30:13.271Z,101217.42
2019-03-27T16:32:40.141Z,101211.45
2019-03-27T16:35:07.326Z,101217.00
2019-03-27T16:37:34.262Z,101214.86
2019-03-27T16:40:01.213Z,101219.55
2019-03-27T16:42:29.783Z,101214.00
2019-03-27T16:44:57.040Z,101214.00
2019-03-27T16:47:23.939Z,101208.07
2019-03-27T16:49:50.909Z,101208.91
2019-03-27T16:52:17.891Z,101206.80
2019-03-27T16:54:44.825Z,101209.35
2019-03-27T16:57:12.086Z,101210.18
2019-03-27T16:59:38.986Z,101208.05
2019-03-27T17:02:06.042Z,101214.87
2019-03-27T17:04:33.318Z,101217.42
2019-03-27T17:07:00.191Z,101219.11
2019-03-27T17:09:27.066Z,101226.77
2019-03-27T17:11:54.036Z,101222.90
2019-03-27T17:14:20.941Z,101232.72
2019-03-27T17:16:47.929Z,101239.03
2019-03-27T17:19:14.885Z,101236.48
2019-03-27T17:21:41.801Z,101236.88
2019-03-27T17:24:08.775Z,101244.53
2019-03-27T17:26:35.780Z,101241.16
2019-03-27T17:29:02.734Z,101243.70
2019-03-27T17:31:29.618Z,101241.58
2019-03-27T17:33:56.562Z,101241.16
2019-03-27T17:36:23.826Z,101243.30
2019-03-27T17:38:51.069Z,101244.53
2019-03-27T17:41:36.557Z,101249.63
2019-03-27T17:44:28.990Z,101252.19
2019-03-27T17:47:13.683Z,101253.42
2019-03-27T17:49:49.649Z,101257.19
2019-03-27T17:52:16.633Z,101263.14
2019-03-27T17:54:43.539Z,101265.70
2019-03-27T17:57:10.509Z,101269.54
2019-03-27T17:59:37.391Z,101270.00
2019-03-27T18:02:04.294Z,101274.23
2019-03-27T18:04:31.333Z,101274.23
2019-03-27T18:06:58.642Z,101269.15
2019-03-27T18:09:25.993Z,101275.11
2019-03-27T18:11:53.243Z,101275.56
2019-03-27T18:14:20.632Z,101275.56
2019-03-27T18:16:47.580Z,101275.11
2019-03-27T18:19:14.569Z,101279.80
2019-03-27T18:21:42.004Z,101281.48
2019-03-27T18:24:08.963Z,101271.28
2019-03-27T18:26:36.258Z,101274.70
2019-03-27T18:29:03.137Z,101273.42
2019-03-27T18:31:30.351Z,101275.11
2019-03-27T18:33:57.273Z,101278.52
2019-03-27T18:36:24.222Z,101274.24
2019-03-27T18:38:51.169Z,101279.34
2019-03-27T18:41:18.121Z,101281.89
2019-03-27T18:43:45.109Z,101281.47
2019-03-27T18:46:12.095Z,101283.61
2019-03-27T18:48:39.094Z,101284.87
2019-03-27T18:51:06.185Z,101292.08
2019-03-27T18:53:33.478Z,101295.08
2019-03-27T18:56:03.385Z,101289.11
2019-03-27T18:58:30.639Z,101295.48
2019-03-27T19:00:57.993Z,101293.34
2019-03-27T19:03:25.253Z,101296.29
2019-03-27T19:05:52.560Z,101292.92
2019-03-27T19:08:19.869Z,101298.85
2019-03-27T19:10:46.840Z,101293.34
2019-03-27T19:13:13.793Z,101291.66
2019-03-27T19:15:41.014Z,101288.27
2019-03-27T19:18:08.264Z,101292.97
2019-03-27T19:20:36.308Z,101288.31
2019-03-27T19:23:04.435Z,101292.97
2019-03-27T19:25:31.388Z,101284.49
2019-03-27T19:27:58.710Z,101281.08
2019-03-27T19:30:25.585Z,101287.00
2019-03-27T19:32:52.483Z,101287.45
2019-03-27T19:35:19.458Z,101290.41
2019-03-27T19:37:46.467Z,101289.98
2019-03-27T19:40:13.425Z,101289.12
2019-03-27T19:42:40.386Z,101293.76
2019-03-27T19:45:07.736Z,101299.30
2019-03-27T19:47:35.007Z,101293.76
2019-03-27T19:50:03.160Z,101290.38
2019-03-27T19:52:30.302Z,101290.80
2019-03-27T19:54:57.664Z,101295.89
2019-03-27T19:57:24.657Z,101292.48
2019-03-27T19:59:51.726Z,101298.45
2019-03-27T20:02:18.753Z,101296.76
2019-03-27T20:04:45.706Z,101301.41
2019-03-27T20:07:13.109Z,101298.86
2019-03-27T20:09:40.378Z,101300.14
2019-03-27T20:12:08.741Z,101307.82
2019-03-27T20:14:35.653Z,101303.55
2019-03-27T20:17:03.054Z,101306.55
2019-03-27T20:19:31.417Z,101308.64
2019-03-27T20:21:58.409Z,101308.64
2019-03-27T20:24:25.881Z,101302.27
2019-03-27T20:26:52.848Z,101303.13
2019-03-27T20:29:20.143Z,101309.50
2019-03-27T20:31:47.373Z,101309.09
2019-03-27T20:34:15.319Z,101312.47
2019-03-27T20:36:42.606Z,101319.70
2019-03-27T20:39:09.560Z,101318.02
2019-03-27T20:41:36.634Z,101319.25
2019-03-27T20:44:03.799Z,101330.31
2019-03-27T20:46:30.986Z,101328.63
2019-03-27T20:48:57.876Z,101334.13
2019-03-27T20:51:25.739Z,101332.45
2019-03-27T20:53:53.076Z,101334.13
2019-03-27T20:56:20.057Z,101330.30
2019-03-27T20:58:46.942Z,101330.70
2019-03-27T21:01:13.974Z,101326.88
2019-03-27T21:03:40.931Z,101329.00
2019-03-27T21:06:07.930Z,101328.14
2019-03-27T21:08:35.249Z,101332.41
2019-03-27T21:11:02.507Z,101333.64
2019-03-27T21:13:29.665Z,101337.46
2019-03-27T21:15:56.569Z,101338.31
2019-03-27T21:18:23.588Z,101338.31
2019-03-27T21:20:50.469Z,101332.34
2019-03-27T21:23:17.350Z,101334.89
2019-03-27T21:25:44.254Z,101340.84
2019-03-27T21:28:11.529Z,101338.70
2019-03-27T21:30:38.452Z,101339.98
2019-03-27T21:33:05.404Z,101343.78
2019-03-27T21:35:32.676Z,101339.95
2019-03-27T21:37:59.556Z,101346.72
2019-03-27T21:40:26.556Z,101344.17
2019-03-27T21:42:53.513Z,101344.16
2019-03-27T21:45:20.500Z,101340.34
2019-03-27T21:47:47.477Z,101343.30
2019-03-27T21:50:14.645Z,101340.33
2019-03-27T21:52:41.531Z,101343.72
2019-03-27T21:55:21.442Z,101341.99
2019-03-27T21:57:37.091Z,101346.21
2019-03-27T22:00:04.371Z,101341.11
2019-03-27T22:02:31.835Z,101347.03
2019-03-27T22:04:58.786Z,101339.38
2019-03-27T22:07:25.750Z,101333.83
2019-03-27T22:09:52.654Z,101332.56
2019-03-27T22:12:19.619Z,101330.47
2019-03-27T22:14:46.871Z,101336.38
2019-03-27T22:17:13.756Z,101337.66
2019-03-27T22:19:40.648Z,101338.92
2019-03-27T22:22:07.639Z,101334.70
2019-03-27T22:24:34.581Z,101335.56
2019-03-27T22:27:01.916Z,101338.92
2019-03-27T22:29:28.854Z,101342.75
2019-03-27T22:31:56.025Z,101340.64
2019-03-27T22:34:22.923Z,101344.46
2019-03-27T22:36:49.889Z,101341.05
2019-03-27T22:39:17.166Z,101348.30
2019-03-27T22:41:44.395Z,101346.58
2019-03-27T22:44:11.577Z,101348.30
2019-03-27T22:46:38.808Z,101349.11
2019-03-27T22:49:06.064Z,101344.02
2019-03-27T22:51:33.422Z,101347.02
2019-03-27T22:54:00.287Z,101345.73
2019-03-27T22:56:27.616Z,101338.91
2019-03-27T22:58:54.612Z,101338.51
2019-03-27T23:01:21.558Z,101336.81
2019-03-27T23:03:48.512Z,101331.72
2019-03-27T23:06:15.520Z,101326.19
2019-03-27T23:08:42.542Z,101333.02
2019-03-27T23:11:09.694Z,101333.02
2019-03-27T23:13:36.587Z,101329.19
2019-03-27T23:16:03.810Z,101330.02
2019-03-27T23:18:30.843Z,101323.22
2019-03-27T23:20:57.798Z,101317.72
2019-03-27T23:23:25.034Z,101319.84
2019-03-27T23:26:02.493Z,101321.97
2019-03-27T23:28:20.891Z,101318.55
2019-03-27T23:30:47.853Z,101324.08
2019-03-27T23:33:14.808Z,101320.20
2019-03-27T23:35:41.786Z,101320.19
2019-03-27T23:38:09.093Z,101312.09
2019-03-27T23:40:36.330Z,101317.23
2019-03-27T23:43:03.347Z,101323.59
2019-03-27T23:45:30.640Z,101318.05
2019-03-27T23:47:57.877Z,101320.20
2019-03-27T23:50:24.758Z,101320.60
2019-03-27T23:52:51.671Z,101317.19
2019-03-27T23:55:18.952Z,101315.55
2019-03-27T23:57:45.906Z,101316.83
